Mc Veytown, Pennsylvania
Current Conditions -  °F | °C
As of 5:53 AM on Friday 19 Dec 2014 (Local Time) from KUNV Reporting Station
Overcast Overcast  
Wind Chill: 21°   Ceiling: 2100
Heat Index: 30°   Visibility: 10mi
Dew Point: 25°   Wind: 12mph
Humidity: 80%   Direction: 290°WNW
Pressure: 30.06"   Gusts: NA
Location:  40.5138°N, 77.7384°W
Report Text: KUNV 191053Z 29010KT 10SM BKN021 OVC027 M01/M04 A3006
Loading
Personal Weather Stations






























Interactive Weather Map New forecast layout! Learn more

10-Day Weather Forecast

Advertisements
Track Severe Weather on mobile